Nearby METAR Reports

 

YMER - Merimbula Arpt, Australia
Distance from station: SE 12km
Updated: 19/04/2021 06:00
Clear
Clear
 Wind from SW
Wind: SW 7 km/h
Temperature: 8°C
Wind Chill: 7°C
Dew Point: 7°C
Humidity: 93%
Barometer: 1017 hPa
Clouds: Clear
Visibility: 10 km
2021/04/18 20:00 YMER 182000Z AUTO 22004KT 9999 // NCD 08/07 Q1017
YCOM - Cooma Snowy Mtns, Australia
Distance from station: NW 96km
Updated: 19/04/2021 06:00
Clear
Clear
 Wind from N
Wind: N 11 km/h
Temperature: -1°C
Wind Chill: -5°C
Dew Point: -1°C
Humidity: 100%
Barometer: 1018 hPa
Clouds: Clear
Visibility: 10 km
2021/04/18 20:00 YCOM 182000Z AUTO 01006KT 9999 // NCD M01/M01 Q1018
 
YSCB - Canberra (civ/Mi, Australia
Distance from station: NNW 182km
Updated: 19/04/2021 07:00
Clear
Clear
 Wind from calm
Wind: Calm
Temperature: 0°C
Dew Point: 0°C
Humidity: 100%
Barometer: 1020 hPa
Clouds: Clear
Visibility: 10 km
2021/04/18 21:00 YSCB 182100Z AUTO 00000KT 9999 // NCD 00/00 Q1020
YSNW - Nowra (aus-Navy), Australia
Distance from station: NNE 219km
Updated: 19/04/2021 06:00
Clear
Clear
 Wind from WNW
Wind: WNW 17 km/h
Temperature: 11°C
Dew Point: 8°C
Humidity: 82%
Barometer: 1018 hPa
Clouds: Clear
Visibility: 10 km
2021/04/18 20:00 YSNW 182000Z AUTO 29009KT 9999 // NCD 11/08 Q1018
 
YMAY - Albury Airport, Australia
Distance from station: WNW 271km
Updated: 19/04/2021 07:00
Overcast
Overcast
 Wind from NE
Wind: NE 6 km/h
Temperature: 5°C
Dew Point: 5°C
Humidity: 100%
Barometer: 1020 hPa
Clouds: Overcast
Visibility: 10 km
Cloud details: Overcast 152 m
2021/04/18 21:00 YMAY 182100Z AUTO 05003KT 9999 // OVC005 05/05 Q1020
YSWG - Wagga Wagga(Cv/M, Australia
Distance from station: NW 283km
Updated: 19/04/2021 07:00
Clear
Clear
 Wind from calm
Wind: Calm
Temperature: 1°C
Dew Point: 1°C
Humidity: 100%
Barometer: 1020 hPa
Clouds: Clear
Visibility: 9 km
2021/04/18 21:00 YSWG 182100Z AUTO 00000KT 9000 // NCD 01/01 Q1020
 
YWGT - Wangaratta Arp, Australia
Distance from station: W 317km
Updated: 19/04/2021 07:00
Overcast
Overcast
 Wind from calm
Wind: Calm
Temperature: 5°C
Dew Point: 4°C
Humidity: 93%
Barometer: 1019 hPa
Clouds: Overcast
Visibility: 10 km
Cloud details: Overcast 1433 m
2021/04/18 21:00 YWGT 182100Z AUTO 00000KT 9999 // OVC047 05/04 Q1019
YSSY - Sydney Intl Airp, Australia
Distance from station: NNE 343km
Updated: 19/04/2021 07:00
Few Clouds
Few Clouds
 Wind from NW
Wind: NW 15 km/h
Temperature: 13°C
Dew Point: 11°C
Humidity: 88%
Barometer: 1019 hPa
Clouds: Few Clouds
Visibility: 10 km
Cloud details: Few Clouds 610 m
2021/04/18 21:00 YSSY 182100Z 31008KT 9999 FEW020 13/11 Q1019